Gordonville, MO (63752)

9:38 AM CDT on May 27, 2017 (GMT -0500)
East Gordonville | | Change Station
Active Advisory: Flood Warning

Elev 397 ft 37.32 °N, 89.66 °W | Updated 31 seconds ago

Partly Cloudy
Partly Cloudy
75.7 °F
Feels Like 76 °F
N
0.0
Wind Variable Wind from SSE
Gusts 0.0 mph

Today
High -- | Low -- °F
--% Chance of Precip.
Yesterday
High -- | Low -- °F
Precip. -- in
Pressure 29.87 in
Visibility 6.0 miles
Clouds Overcast 1300 ft
Heat Index 76 °F
Dew Point 71 °F
Humidity 86%
Rainfall 0.00 in
Snow Depth Not available.
5:41 AM 8:10 PM
Waxing Crescent, 5% visible
SPECI KCGI 271420Z 17007KT 6SM HZ OVC013 24/21 A2987 RMK AO2 T02390211
Pressure 29.87 in
Visibility 6.0 miles
Clouds Overcast 1300 ft
Heat Index 76 °F
Dew Point 71 °F
Humidity 86%
Rainfall 0.00 in
Snow Depth Not available.
5:41 AM 8:10 PM
Waxing Crescent, 5% visible
SPECI KCGI 271420Z 17007KT 6SM HZ OVC013 24/21 A2987 RMK AO2 T02390211

Get Your Daily Forecast Email!

Thanks for signing up!

Be on the lookout for a verification email in your inbox.

You'll start receiving severe weather alerts in your inbox..

×

10-Day Weather Forecast

Almanac

Astronomy

May. 27, 2017 Rise Set
Actual Time
Civil Twilight
Nautical Twilight
Astronomical Twilight
Moon
Length of Visible Light
Length of Day
Tomorrow will be .
, % of the Moon is Illuminated

Today's Extremes

State Highs State Lows

Community

WunderPhotos

Category 6

Welcome to Category 6. This is the collective home for Weather Underground's featured writeups by Dr. Jeff Masters (right), Bob Henson (left), Chris Burt, and other regular contributors.

Nearby

Air Quality

  Air Quality AQ Index Pollutant
Not available.

Snow Depth

Station Depth Elevation

Earthquake Activity

City Distance Mag. Time & Date
Minimum magnitude displayed is 2.5.

Coastal Water Temperatures

Place Temperature

Stations

Nearby Weather Stations

Station Location Temp. Windchill Dew Point Humidity Wind Precip. Elev Updated Type
                   

Watches & Warnings

Flood Warning
Issued: 9:00 PM CDT May. 26, 2017 – National Weather Service

The Flood Warning continues for the Mississippi River at Cape Girardeau.
* Until further notice.
* At 8:30 PM Friday the stage was 36.3 feet.
* Flood stage is 32.0 feet.
* Minor flooding is occurring and minor flooding is forecast.
* Forecast... the river should peak near current levels through
Saturday. Thereafter, the river should resume a slow fall--dropping
below flood stage around Thursday.
* Impact... at 36.0 feet... the flood gate on Themis street closes.


Lat... Lon 3769 8959 3769 8935 3744 8934 3725 8941
      3723 8959 3732 8963